Time;durP1;ratioP1;P1;durP2;ratioP2;P2;SDS_P1;SDS_P2;PMS_P1;PMS_P2;Temp;Humidity;BMP_temperature;BMP_pressure;BME280_temperature;BME280_humidity;BME280_pressure;Samples;Min_cycle;Max_cycle;Signal;HPM_P1;HPM_P2
2023/03/03 00:00:30;;;;;;;20.58;14.30;;;;;;;;;;5053946;28;20025;-58
2023/03/03 00:02:59;;;;;;;22.65;16.52;;;;;;;;;;5053820;28;20054;-58
2023/03/03 00:05:25;;;;;;;16.88;13.07;;;;;;;;;;5054254;28;20048;-58
2023/03/03 00:07:51;;;;;;;16.35;14.20;;;;;;;;;;5053721;28;20466;-58
2023/03/03 00:10:17;;;;;;;20.35;17.13;;;;;;;;;;5054280;28;20454;-58
2023/03/03 00:12:47;;;;;;;18.88;15.70;;;;;;;;;;5053499;28;20110;-58
2023/03/03 00:15:15;;;;;;;24.48;15.05;;;;;;;;;;5054234;28;20025;-57
2023/03/03 00:17:41;;;;;;;20.27;13.88;;;;;;;;;;5053917;28;20100;-58
2023/03/03 00:20:25;;;;;;;22.83;15.82;;;;;;;;;;5053628;28;20078;-58
2023/03/03 00:22:52;;;;;;;18.55;15.57;;;;;;;;;;5053493;28;20142;-58
2023/03/03 00:25:26;;;;;;;20.70;15.52;;;;;;;;;;5054272;28;20039;-58
2023/03/03 00:27:52;;;;;;;23.10;16.33;;;;;;;;;;5054545;28;20362;-58
2023/03/03 00:30:25;;;;;;;27.17;18.40;;;;;;;;;;5060702;28;20032;-57
2023/03/03 00:32:51;;;;;;;25.25;17.52;;;;;;;;;;5060130;28;20033;-57
2023/03/03 00:35:23;;;;;;;20.65;15.00;;;;;;;;;;5060655;28;20029;-57
2023/03/03 00:37:51;;;;;;;27.45;15.82;;;;;;;;;;5060586;28;20025;-58
2023/03/03 00:40:17;;;;;;;22.43;15.33;;;;;;;;;;5060531;28;20075;-57
2023/03/03 00:42:46;;;;;;;27.63;17.60;;;;;;;;;;5060507;28;20366;-58
2023/03/03 00:45:23;;;;;;;20.08;15.50;;;;;;;;;;5060441;28;20037;-59
2023/03/03 00:47:49;;;;;;;22.60;16.42;;;;;;;;;;5060239;28;20421;-58
2023/03/03 00:50:26;;;;;;;22.53;15.77;;;;;;;;;;5059951;28;20040;-58
2023/03/03 00:53:03;;;;;;;20.47;15.00;;;;;;;;;;5060513;28;20401;-58
2023/03/03 00:55:29;;;;;;;26.38;17.60;;;;;;;;;;5060226;28;20352;-58
2023/03/03 00:57:55;;;;;;;19.25;15.25;;;;;;;;;;5059929;28;20021;-56
2023/03/03 01:00:21;;;;;;;20.80;17.43;;;;;;;;;;5060370;28;20024;-58
2023/03/03 01:02:47;;;;;;;24.80;15.17;;;;;;;;;;5060493;28;20036;-58
2023/03/03 01:05:14;;;;;;;37.17;17.17;;;;;;;;;;5060464;28;20033;-58
2023/03/03 01:07:40;;;;;;;25.77;18.70;;;;;;;;;;5060415;28;20355;-58
2023/03/03 01:10:06;;;;;;;17.90;14.80;;;;;;;;;;5059605;28;20021;-57
2023/03/03 01:12:32;;;;;;;19.53;15.50;;;;;;;;;;5060459;28;20033;-57
2023/03/03 01:14:58;;;;;;;22.30;16.40;;;;;;;;;;5059897;28;20371;-58
2023/03/03 01:17:24;;;;;;;23.23;15.90;;;;;;;;;;5060068;28;20029;-58
2023/03/03 01:19:50;;;;;;;21.60;17.77;;;;;;;;;;5060415;28;20025;-58
2023/03/03 01:22:16;;;;;;;24.33;15.60;;;;;;;;;;5059683;28;20021;-58
2023/03/03 01:24:42;;;;;;;20.63;16.67;;;;;;;;;;5060376;28;20111;-57
2023/03/03 01:27:08;;;;;;;23.00;16.87;;;;;;;;;;5060031;28;20518;-58
2023/03/03 01:29:34;;;;;;;21.67;15.10;;;;;;;;;;5059956;28;20091;-56
2023/03/03 01:32:00;;;;;;;22.47;14.67;;;;;;;;;;5060237;28;20445;-58
2023/03/03 01:34:26;;;;;;;25.27;17.17;;;;;;;;;;5059574;28;20427;-56
2023/03/03 01:36:52;;;;;;;22.50;15.27;;;;;;;;;;5059399;28;20075;-58
2023/03/03 01:39:18;;;;;;;21.00;14.90;;;;;;;;;;5059043;28;20040;-57
2023/03/03 01:41:44;;;;;;;17.93;14.70;;;;;;;;;;5056303;28;20090;-57
2023/03/03 01:44:15;;;;;;;20.63;16.63;;;;;;;;;;5056412;28;20037;-57
2023/03/03 01:46:44;;;;;;;28.90;17.60;;;;;;;;;;5056728;28;20040;-58
2023/03/03 01:49:13;;;;;;;28.70;17.00;;;;;;;;;;5056672;28;20457;-58
2023/03/03 01:51:44;;;;;;;21.83;15.87;;;;;;;;;;5056645;28;20029;-58
2023/03/03 01:54:10;;;;;;;;;;;;;;;;;;5056696;28;20375;-58
2023/03/03 01:56:36;;;;;;;24.43;15.40;;;;;;;;;;5056290;28;19905;-58
2023/03/03 01:59:05;;;;;;;25.97;15.03;;;;;;;;;;5056194;28;20025;-53
2023/03/03 02:01:32;;;;;;;28.50;17.13;;;;;;;;;;5056588;28;20032;-56
2023/03/03 02:03:58;;;;;;;18.10;14.93;;;;;;;;;;5054848;28;20033;-58
2023/03/03 02:06:30;;;;;;;22.20;18.13;;;;;;;;;;5056120;28;20473;-57
2023/03/03 02:08:57;;;;;;;26.20;17.83;;;;;;;;;;5056324;28;20025;-57
2023/03/03 02:11:23;;;;;;;22.35;16.60;;;;;;;;;;5055857;28;20052;-57
2023/03/03 02:13:49;;;;;;;27.37;16.43;;;;;;;;;;5055896;28;20045;-53
2023/03/03 02:16:15;;;;;;;29.50;20.00;;;;;;;;;;5055842;28;20067;-58
2023/03/03 02:18:41;;;;;;;22.07;17.07;;;;;;;;;;5056120;28;20068;-57
2023/03/03 02:21:12;;;;;;;21.77;17.20;;;;;;;;;;5055730;28;20060;-58
2023/03/03 02:23:38;;;;;;;21.40;16.25;;;;;;;;;;5056160;28;20104;-57
2023/03/03 02:26:08;;;;;;;19.53;14.43;;;;;;;;;;5055629;28;20041;-57
2023/03/03 02:28:35;;;;;;;19.52;15.15;;;;;;;;;;5055601;28;20033;-57
2023/03/03 02:31:02;;;;;;;23.03;17.40;;;;;;;;;;5055596;28;20025;-57
2023/03/03 02:33:28;;;;;;;19.03;14.53;;;;;;;;;;5056288;28;20112;-57
2023/03/03 02:35:54;;;;;;;23.57;16.47;;;;;;;;;;5055787;28;20074;-55
2023/03/03 02:38:24;;;;;;;26.70;17.57;;;;;;;;;;5055407;28;20021;-57
2023/03/03 02:40:56;;;;;;;23.48;15.48;;;;;;;;;;5055483;28;20474;-57
2023/03/03 02:43:24;;;;;;;22.47;15.43;;;;;;;;;;5055909;28;20112;-58
2023/03/03 02:45:50;;;;;;;23.10;15.53;;;;;;;;;;5055821;28;20033;-57
2023/03/03 02:48:16;;;;;;;26.77;17.53;;;;;;;;;;5055434;28;20043;-56
2023/03/03 02:50:42;;;;;;;21.70;17.77;;;;;;;;;;5055183;28;20455;-57
2023/03/03 02:53:08;;;;;;;19.93;16.27;;;;;;;;;;5055305;28;20021;-56
2023/03/03 02:55:34;;;;;;;19.50;15.27;;;;;;;;;;5055615;28;20036;-57
2023/03/03 02:58:00;;;;;;;27.37;17.13;;;;;;;;;;5055327;28;20021;-57
2023/03/03 03:00:26;;;;;;;27.10;19.43;;;;;;;;;;5055288;28;20053;-56
2023/03/03 03:02:52;;;;;;;25.10;17.27;;;;;;;;;;5054952;28;20060;-56
2023/03/03 03:05:18;;;;;;;22.07;17.60;;;;;;;;;;5054875;28;20410;-57
2023/03/03 03:07:44;;;;;;;23.77;18.00;;;;;;;;;;5054899;28;20025;-56
2023/03/03 03:10:10;;;;;;;25.83;19.00;;;;;;;;;;5055135;28;20390;-56
2023/03/03 03:12:36;;;;;;;24.70;18.20;;;;;;;;;;5054619;28;20100;-57
2023/03/03 03:15:02;;;;;;;31.87;21.00;;;;;;;;;;5055273;28;20390;-55
2023/03/03 03:17:28;;;;;;;34.63;21.73;;;;;;;;;;5054631;28;20033;-57
2023/03/03 03:19:54;;;;;;;30.55;20.17;;;;;;;;;;5054874;28;20062;-57
2023/03/03 03:22:20;;;;;;;28.10;20.33;;;;;;;;;;5054118;28;20025;-58
2023/03/03 03:24:45;;;;;;;24.33;19.23;;;;;;;;;;5055075;28;20036;-56
2023/03/03 03:27:11;;;;;;;28.67;19.90;;;;;;;;;;5054804;28;20470;-56
2023/03/03 03:29:37;;;;;;;25.98;18.00;;;;;;;;;;5054449;28;20359;-57
2023/03/03 03:32:03;;;;;;;24.90;16.97;;;;;;;;;;5054314;28;20113;-57
2023/03/03 03:34:30;;;;;;;29.97;19.00;;;;;;;;;;5054422;28;20033;-56
2023/03/03 03:36:56;;;;;;;22.93;16.37;;;;;;;;;;5054854;28;20112;-54
2023/03/03 03:39:22;;;;;;;27.70;18.27;;;;;;;;;;5054845;28;20358;-57
2023/03/03 03:41:48;;;;;;;28.27;20.10;;;;;;;;;;5054278;28;20103;-57
2023/03/03 03:44:13;;;;;;;29.52;20.10;;;;;;;;;;5054159;28;20044;-57
2023/03/03 03:46:39;;;;;;;27.00;18.63;;;;;;;;;;5054531;28;20434;-57
2023/03/03 03:49:05;;;;;;;29.83;18.37;;;;;;;;;;5054081;28;20085;-57
2023/03/03 03:51:34;;;;;;;25.23;18.43;;;;;;;;;;5054091;28;20068;-55
2023/03/03 03:54:00;;;;;;;28.63;20.63;;;;;;;;;;5054000;28;20037;-57
2023/03/03 03:56:26;;;;;;;30.57;20.30;;;;;;;;;;5054553;28;20413;-54
2023/03/03 03:58:52;;;;;;;34.70;20.80;;;;;;;;;;5053979;28;20029;-57
2023/03/03 04:01:18;;;;;;;30.53;19.33;;;;;;;;;;5054237;28;20029;-57
2023/03/03 04:03:44;;;;;;;25.17;17.27;;;;;;;;;;5052997;28;20379;-58
2023/03/03 04:06:10;;;;;;;25.93;19.77;;;;;;;;;;5054479;28;20029;-56
2023/03/03 04:08:36;;;;;;;29.63;19.33;;;;;;;;;;5053773;28;20066;-57
2023/03/03 04:11:02;;;;;;;24.30;18.47;;;;;;;;;;5053771;28;20063;-58
2023/03/03 04:13:30;;;;;;;31.77;18.63;;;;;;;;;;5054483;28;20513;-57
2023/03/03 04:15:56;;;;;;;28.80;20.23;;;;;;;;;;5053944;28;20033;-56
2023/03/03 04:18:22;;;;;;;28.50;19.70;;;;;;;;;;5053675;28;20025;-57
2023/03/03 04:20:51;;;;;;;31.93;21.17;;;;;;;;;;5053654;28;20108;-57
2023/03/03 04:23:18;;;;;;;27.37;19.53;;;;;;;;;;5053834;28;20033;-58
2023/03/03 04:25:45;;;;;;;28.03;19.67;;;;;;;;;;5054326;28;20049;-57
2023/03/03 04:28:11;;;;;;;26.77;20.77;;;;;;;;;;5053537;28;20032;-57
2023/03/03 04:30:37;;;;;;;25.63;19.67;;;;;;;;;;5053634;28;20371;-55
2023/03/03 04:33:03;;;;;;;28.08;18.80;;;;;;;;;;5053588;28;20033;-56
2023/03/03 04:35:29;;;;;;;23.30;18.40;;;;;;;;;;5054318;28;20029;-56
2023/03/03 04:37:55;;;;;;;30.93;20.10;;;;;;;;;;5054267;28;20328;-57
2023/03/03 04:40:21;;;;;;;24.60;17.77;;;;;;;;;;5053497;28;20028;-58
2023/03/03 04:42:47;;;;;;;32.50;19.77;;;;;;;;;;5053813;28;20413;-57
2023/03/03 04:45:13;;;;;;;31.63;21.40;;;;;;;;;;5053537;28;20123;-57
2023/03/03 04:47:39;;;;;;;25.48;19.13;;;;;;;;;;5053182;28;20051;-57
2023/03/03 04:50:06;;;;;;;27.65;18.52;;;;;;;;;;5053500;28;20043;-57
2023/03/03 04:52:32;;;;;;;27.30;16.63;;;;;;;;;;5053469;28;20044;-57
2023/03/03 04:54:58;;;;;;;29.87;20.10;;;;;;;;;;5053802;28;20029;-57
2023/03/03 04:57:24;;;;;;;22.00;18.47;;;;;;;;;;5053941;28;20056;-57
2023/03/03 04:59:50;;;;;;;23.10;19.77;;;;;;;;;;5053089;28;20021;-57
2023/03/03 05:02:16;;;;;;;30.85;20.15;;;;;;;;;;5053276;28;20033;-58
2023/03/03 05:04:42;;;;;;;28.63;19.60;;;;;;;;;;5054109;28;20071;-56
2023/03/03 05:07:08;;;;;;;27.00;18.97;;;;;;;;;;5053621;28;20025;-57
2023/03/03 05:09:34;;;;;;;26.73;18.07;;;;;;;;;;5053026;28;20391;-52
2023/03/03 05:12:00;;;;;;;19.70;17.23;;;;;;;;;;5053222;28;20025;-53
2023/03/03 05:14:26;;;;;;;25.38;18.23;;;;;;;;;;5054102;28;20041;-56
2023/03/03 05:16:52;;;;;;;26.95;18.00;;;;;;;;;;5056785;28;20029;-57
2023/03/03 05:19:18;;;;;;;28.90;19.20;;;;;;;;;;5057064;28;20376;-57
2023/03/03 05:21:44;;;;;;;27.83;18.27;;;;;;;;;;5056993;28;20025;-56
2023/03/03 05:24:11;;;;;;;21.70;19.37;;;;;;;;;;5056759;28;20423;-55
2023/03/03 05:26:37;;;;;;;26.98;18.90;;;;;;;;;;5057309;28;20332;-57
2023/03/03 05:29:03;;;;;;;20.60;16.00;;;;;;;;;;5056720;28;20071;-54
2023/03/03 05:31:29;;;;;;;32.42;19.38;;;;;;;;;;5057178;28;20410;-56
2023/03/03 05:33:55;;;;;;;38.50;21.92;;;;;;;;;;5056691;28;20021;-55
2023/03/03 05:36:21;;;;;;;28.83;19.40;;;;;;;;;;5057021;28;20033;-56
2023/03/03 05:38:47;;;;;;;31.13;20.13;;;;;;;;;;5056635;28;20031;-55
2023/03/03 05:41:13;;;;;;;24.23;16.80;;;;;;;;;;5056646;28;20036;-56
2023/03/03 05:43:39;;;;;;;28.43;20.20;;;;;;;;;;5056518;28;20052;-55
2023/03/03 05:46:05;;;;;;;32.28;19.50;;;;;;;;;;5057225;28;20070;-55
2023/03/03 05:48:31;;;;;;;29.40;21.17;;;;;;;;;;5056757;28;20464;-53
2023/03/03 05:50:58;;;;;;;23.33;17.90;;;;;;;;;;5056422;28;20028;-56
2023/03/03 05:53:24;;;;;;;30.00;20.47;;;;;;;;;;5056641;28;20033;-56
2023/03/03 05:55:50;;;;;;;25.10;18.17;;;;;;;;;;5056945;28;20024;-57
2023/03/03 05:58:16;;;;;;;24.65;18.58;;;;;;;;;;5056138;28;20025;-57
2023/03/03 06:00:42;;;;;;;30.97;16.90;;;;;;;;;;5056497;28;20370;-57
2023/03/03 06:03:11;;;;;;;22.37;18.20;;;;;;;;;;5056774;28;20104;-59
2023/03/03 06:05:37;;;;;;;28.33;18.80;;;;;;;;;;5056702;28;20048;-57
2023/03/03 06:08:03;;;;;;;31.80;18.00;;;;;;;;;;5056083;28;20029;-58
2023/03/03 06:10:29;;;;;;;27.70;19.97;;;;;;;;;;5056012;28;20083;-51
2023/03/03 06:12:55;;;;;;;28.95;17.83;;;;;;;;;;5055887;28;20041;-55
2023/03/03 06:15:22;;;;;;;24.23;18.23;;;;;;;;;;5056225;28;20111;-52
2023/03/03 06:17:48;;;;;;;23.60;16.43;;;;;;;;;;5056241;28;20025;-54
2023/03/03 06:20:14;;;;;;;19.35;16.02;;;;;;;;;;5055806;28;20497;-53
2023/03/03 06:22:40;;;;;;;24.77;17.88;;;;;;;;;;5055799;28;20036;-51
2023/03/03 06:25:06;;;;;;;27.50;19.95;;;;;;;;;;5055674;28;20387;-53
2023/03/03 06:27:32;;;;;;;26.42;17.20;;;;;;;;;;5055049;28;20379;-50
2023/03/03 06:29:58;;;;;;;21.85;16.92;;;;;;;;;;5055887;28;20026;-55
2023/03/03 06:32:24;;;;;;;30.60;18.83;;;;;;;;;;5055327;28;20429;-52
2023/03/03 06:34:50;;;;;;;28.45;17.02;;;;;;;;;;5055571;28;20029;-50
2023/03/03 06:37:16;;;;;;;21.97;15.10;;;;;;;;;;5055854;28;20074;-54
2023/03/03 06:39:42;;;;;;;24.73;17.07;;;;;;;;;;5055975;28;20031;-52
2023/03/03 06:42:08;;;;;;;29.45;20.02;;;;;;;;;;5055503;28;20108;-56
2023/03/03 06:44:34;;;;;;;23.17;16.95;;;;;;;;;;5055581;28;20428;-53
2023/03/03 06:47:00;;;;;;;28.40;18.20;;;;;;;;;;5055926;28;20029;-52
2023/03/03 06:49:26;;;;;;;24.05;17.80;;;;;;;;;;5055773;28;20055;-53
2023/03/03 06:51:52;;;;;;;25.50;15.68;;;;;;;;;;5055697;28;20059;-52
2023/03/03 06:54:19;;;;;;;21.58;15.93;;;;;;;;;;5055067;28;20057;-52
2023/03/03 06:56:46;;;;;;;21.58;14.80;;;;;;;;;;5055611;28;20363;-55
2023/03/03 06:59:16;;;;;;;24.27;17.43;;;;;;;;;;5055421;28;20106;-54
2023/03/03 07:01:42;;;;;;;22.35;17.02;;;;;;;;;;5055171;28;20025;-54
2023/03/03 07:04:14;;;;;;;26.77;16.73;;;;;;;;;;5054765;28;20120;-53
2023/03/03 07:06:40;;;;;;;18.07;15.23;;;;;;;;;;5055252;28;20036;-57
2023/03/03 07:09:14;;;;;;;28.50;18.77;;;;;;;;;;5054969;28;20032;-53
2023/03/03 07:11:40;;;;;;;18.40;13.45;;;;;;;;;;5055281;28;20170;-54
2023/03/03 07:14:10;;;;;;;28.20;16.57;;;;;;;;;;5053593;28;20475;-54
2023/03/03 07:16:36;;;;;;;20.30;15.57;;;;;;;;;;5054811;28;20029;-57
2023/03/03 07:19:04;;;;;;;19.27;13.60;;;;;;;;;;5054670;28;20025;-56
2023/03/03 07:21:31;;;;;;;23.60;16.05;;;;;;;;;;5054648;28;20522;-57
2023/03/03 07:23:57;;;;;;;16.83;13.45;;;;;;;;;;5054103;28;20462;-57
2023/03/03 07:26:32;;;;;;;23.17;15.13;;;;;;;;;;5054894;28;20052;-55
2023/03/03 07:29:03;;;;;;;21.00;13.48;;;;;;;;;;5055166;28;20021;-51
2023/03/03 07:31:30;;;;;;;20.77;15.98;;;;;;;;;;5054031;28;20017;-56
2023/03/03 07:33:58;;;;;;;15.95;13.00;;;;;;;;;;5054310;28;20029;-56
2023/03/03 07:36:29;;;;;;;17.17;13.93;;;;;;;;;;5054565;28;20375;-56
2023/03/03 07:38:58;;;;;;;21.13;14.45;;;;;;;;;;5053483;28;20040;-56
2023/03/03 07:41:24;;;;;;;23.35;16.58;;;;;;;;;;5053948;28;20029;-56
2023/03/03 07:43:53;;;;;;;20.80;15.60;;;;;;;;;;5054078;28;20372;-56
2023/03/03 07:46:34;;;;;;;25.08;16.05;;;;;;;;;;5054214;28;20479;-54
2023/03/03 07:49:01;;;;;;;23.05;14.23;;;;;;;;;;5054005;28;20013;-56
2023/03/03 07:51:28;;;;;;;18.38;14.57;;;;;;;;;;5053901;28;20017;-55
2023/03/03 07:54:14;;;;;;;21.27;15.43;;;;;;;;;;5054588;28;20048;-56
2023/03/03 07:56:40;;;;;;;23.02;15.35;;;;;;;;;;5054351;28;20079;-55
2023/03/03 07:59:17;;;;;;;21.98;15.05;;;;;;;;;;5053943;28;20064;-57
2023/03/03 08:01:48;;;;;;;17.50;12.68;;;;;;;;;;5054504;28;20021;-54
2023/03/03 08:04:40;;;;;;;20.23;13.13;;;;;;;;;;5054305;28;20036;-57
2023/03/03 08:07:11;;;;;;;17.67;13.57;;;;;;;;;;5052986;28;20067;-54
2023/03/03 08:09:46;;;;;;;22.70;15.00;;;;;;;;;;5054134;28;20060;-56
2023/03/03 08:12:12;;;;;;;22.00;14.35;;;;;;;;;;5053866;28;20025;-56
2023/03/03 08:14:38;;;;;;;24.05;15.32;;;;;;;;;;5054169;28;20049;-57
2023/03/03 08:17:19;;;;;;;22.15;16.02;;;;;;;;;;5053448;28;20029;-54
2023/03/03 08:19:45;;;;;;;16.65;14.25;;;;;;;;;;5053213;28;20108;-55
2023/03/03 08:22:13;;;;;;;22.17;13.95;;;;;;;;;;5053485;28;20060;-58
2023/03/03 08:24:39;;;;;;;22.95;14.20;;;;;;;;;;5053298;28;20120;-55
2023/03/03 08:27:05;;;;;;;22.70;15.90;;;;;;;;;;5053107;28;20091;-55
2023/03/03 08:29:31;;;;;;;15.40;13.57;;;;;;;;;;5053249;28;20036;-55
2023/03/03 08:31:57;;;;;;;20.58;15.90;;;;;;;;;;5054062;28;20111;-56
2023/03/03 08:34:23;;;;;;;25.23;13.48;;;;;;;;;;5053920;28;20079;-53
2023/03/03 08:36:49;;;;;;;19.67;14.30;;;;;;;;;;5053873;28;20032;-56
2023/03/03 08:39:15;;;;;;;23.33;15.30;;;;;;;;;;5053324;28;20068;-56
2023/03/03 08:41:43;;;;;;;20.88;15.63;;;;;;;;;;5053731;28;20082;-55
2023/03/03 08:44:09;;;;;;;29.20;16.55;;;;;;;;;;5053339;28;20125;-57
2023/03/03 08:46:35;;;;;;;21.63;15.88;;;;;;;;;;5053338;28;20025;-57
2023/03/03 08:49:01;;;;;;;20.20;15.95;;;;;;;;;;5053878;28;20028;-56
2023/03/03 08:51:27;;;;;;;25.65;15.52;;;;;;;;;;5056916;28;20028;-52
2023/03/03 08:53:53;;;;;;;22.15;14.95;;;;;;;;;;5057844;28;20087;-57
2023/03/03 08:56:19;;;;;;;23.38;14.98;;;;;;;;;;5058220;28;20071;-55
2023/03/03 08:58:46;;;;;;;26.77;15.27;;;;;;;;;;5057128;28;20029;-56
2023/03/03 09:01:13;;;;;;;18.73;14.20;;;;;;;;;;5057638;28;20036;-57
2023/03/03 09:03:39;;;;;;;18.92;12.77;;;;;;;;;;5057074;28;20029;-57
2023/03/03 09:06:05;;;;;;;24.45;17.02;;;;;;;;;;5057269;28;20048;-57
2023/03/03 09:08:31;;;;;;;23.73;16.30;;;;;;;;;;5057523;28;20082;-57
2023/03/03 09:10:57;;;;;;;23.45;16.73;;;;;;;;;;5057091;28;20025;-53
2023/03/03 09:13:22;;;;;;;25.65;15.30;;;;;;;;;;5057197;28;20049;-57
2023/03/03 09:15:49;;;;;;;18.75;14.35;;;;;;;;;;5056801;28;20024;-57
2023/03/03 09:18:17;;;;;;;21.05;15.27;;;;;;;;;;5057283;28;20033;-56
2023/03/03 09:20:47;;;;;;;20.15;16.00;;;;;;;;;;5056994;28;20039;-57
2023/03/03 09:23:32;;;;;;;17.05;13.65;;;;;;;;;;5057404;28;20391;-56
2023/03/03 09:26:18;;;;;;;22.52;18.38;;;;;;;;;;5057329;28;20371;-55
2023/03/03 09:28:44;;;;;;;19.75;16.13;;;;;;;;;;5055222;28;20060;-55
2023/03/03 09:31:36;;;;;;;22.58;17.67;;;;;;;;;;5056502;28;20029;-57
2023/03/03 09:34:12;;;;;;;22.45;16.05;;;;;;;;;;5047946;28;20033;-57
2023/03/03 09:36:38;;;;;;;22.02;16.33;;;;;;;;;;5057023;28;20025;-57
2023/03/03 09:39:24;;;;;;;20.05;14.75;;;;;;;;;;5057431;28;20025;-55
2023/03/03 09:42:01;;;;;;;23.55;16.63;;;;;;;;;;5056577;28;20036;-56
2023/03/03 09:44:27;;;;;;;22.17;17.20;;;;;;;;;;5056518;28;20063;-57
2023/03/03 09:47:12;;;;;;;20.23;15.65;;;;;;;;;;5056842;28;20029;-57
2023/03/03 09:49:53;;;;;;;21.30;16.60;;;;;;;;;;5056730;28;20025;-55
2023/03/03 09:52:45;;;;;;;23.83;16.75;;;;;;;;;;5056482;28;20017;-58
2023/03/03 09:55:14;;;;;;;25.92;16.63;;;;;;;;;;5056693;28;20033;-56
2023/03/03 09:58:06;;;;;;;27.50;17.70;;;;;;;;;;5056731;28;20098;-56
2023/03/03 10:00:53;;;;;;;23.27;16.77;;;;;;;;;;5054380;28;20059;-57
2023/03/03 10:03:48;;;;;;;21.73;14.63;;;;;;;;;;5056223;28;20441;-55
2023/03/03 10:06:32;;;;;;;24.30;17.02;;;;;;;;;;5056154;28;20059;-56
2023/03/03 10:09:05;;;;;;;24.90;15.60;;;;;;;;;;5056108;28;20031;-57
2023/03/03 10:11:38;;;;;;;18.67;14.70;;;;;;;;;;5056109;28;20040;-57
2023/03/03 10:14:13;;;;;;;22.52;16.88;;;;;;;;;;5056271;28;20052;-57
2023/03/03 10:16:39;;;;;;;22.75;14.98;;;;;;;;;;5056404;28;20025;-57
2023/03/03 10:19:24;;;;;;;27.08;18.58;;;;;;;;;;5055879;28;20083;-55
2023/03/03 10:21:55;;;;;;;19.23;16.70;;;;;;;;;;5056061;28;20063;-58
2023/03/03 10:24:31;;;;;;;25.77;17.38;;;;;;;;;;5055722;28;20471;-58
2023/03/03 10:26:57;;;;;;;26.10;17.52;;;;;;;;;;5055772;28;20052;-57
2023/03/03 10:29:32;;;;;;;20.70;14.65;;;;;;;;;;5055718;28;20095;-58
2023/03/03 10:32:12;;;;;;;27.80;16.58;;;;;;;;;;5055606;28;20025;-55
2023/03/03 10:34:56;;;;;;;26.15;16.77;;;;;;;;;;5055725;28;20104;-58
2023/03/03 10:37:34;;;;;;;21.23;14.40;;;;;;;;;;5055558;28;20052;-53
2023/03/03 10:40:12;;;;;;;21.85;15.27;;;;;;;;;;5055538;28;20096;-55
2023/03/03 10:42:54;;;;;;;20.48;15.48;;;;;;;;;;5055378;28;20029;-53
2023/03/03 10:45:43;;;;;;;22.92;16.85;;;;;;;;;;5055608;28;20537;-55
2023/03/03 10:48:18;;;;;;;24.55;11.90;;;;;;;;;;5055839;28;20107;-57
2023/03/03 10:50:44;;;;;;;20.10;14.88;;;;;;;;;;5055633;28;20101;-56
2023/03/03 10:53:22;;;;;;;22.40;16.27;;;;;;;;;;5055147;28;20052;-53
2023/03/03 10:55:54;;;;;;;22.80;16.10;;;;;;;;;;5055211;28;20025;-56
2023/03/03 10:58:20;;;;;;;25.02;16.30;;;;;;;;;;5055471;28;20029;-57
2023/03/03 11:00:54;;;;;;;20.27;14.45;;;;;;;;;;5054904;28;20029;-56
2023/03/03 11:03:25;;;;;;;25.73;17.15;;;;;;;;;;5055354;28;20158;-57
2023/03/03 11:05:54;;;;;;;17.65;14.73;;;;;;;;;;5054849;28;20029;-55
2023/03/03 11:08:23;;;;;;;23.02;14.75;;;;;;;;;;5055429;28;20027;-56
2023/03/03 11:10:52;;;;;;;23.15;15.70;;;;;;;;;;5054782;28;20439;-55
2023/03/03 11:13:18;;;;;;;27.33;16.15;;;;;;;;;;5054812;28;20179;-57
2023/03/03 11:16:03;;;;;;;19.63;13.98;;;;;;;;;;5055096;28;20107;-55
2023/03/03 11:18:41;;;;;;;31.45;15.40;;;;;;;;;;5054685;28;20040;-56
2023/03/03 11:21:10;;;;;;;17.23;14.90;;;;;;;;;;5055287;28;20025;-57
2023/03/03 11:23:48;;;;;;;20.85;15.32;;;;;;;;;;5054449;28;20055;-57
2023/03/03 11:26:28;;;;;;;22.00;16.13;;;;;;;;;;5054373;28;20386;-56
2023/03/03 11:29:06;;;;;;;21.95;16.10;;;;;;;;;;5054950;28;20352;-57
2023/03/03 11:31:43;;;;;;;22.05;15.23;;;;;;;;;;5054389;28;20083;-56
2023/03/03 11:34:09;;;;;;;20.73;15.75;;;;;;;;;;5054409;28;20025;-56
2023/03/03 11:36:54;;;;;;;20.25;16.90;;;;;;;;;;5054435;28;20162;-55
2023/03/03 11:39:23;;;;;;;20.20;14.82;;;;;;;;;;5054877;28;20025;-55
2023/03/03 11:42:04;;;;;;;23.75;16.65;;;;;;;;;;5054273;28;20021;-55
2023/03/03 11:44:29;;;;;;;;;;;;;;;;;;5054624;28;20048;-57
2023/03/03 11:47:17;;;;;;;17.27;15.13;;;;;;;;;;5054507;28;19905;-53
2023/03/03 11:49:47;;;;;;;21.20;15.15;;;;;;;;;;5054569;28;20031;-56
2023/03/03 11:52:15;;;;;;;21.15;14.57;;;;;;;;;;5054025;28;20025;-56
2023/03/03 11:54:49;;;;;;;20.52;13.52;;;;;;;;;;5054104;28;20021;-57
2023/03/03 11:57:21;;;;;;;25.23;16.30;;;;;;;;;;5054255;28;20037;-56
2023/03/03 11:59:58;;;;;;;25.00;16.48;;;;;;;;;;5054442;28;20021;-57
2023/03/03 12:02:24;;;;;;;22.85;16.13;;;;;;;;;;5054300;28;20017;-55
2023/03/03 12:04:55;;;;;;;22.98;16.58;;;;;;;;;;5054229;28;20029;-57
2023/03/03 12:07:21;;;;;;;;;;;;;;;;;;5054371;28;20029;-57
2023/03/03 12:09:47;;;;;;;22.30;16.90;;;;;;;;;;5053817;28;19911;-57
2023/03/03 12:12:15;;;;;;;21.92;16.20;;;;;;;;;;5054195;28;20025;-57
2023/03/03 12:15:02;;;;;;;21.52;15.52;;;;;;;;;;5054466;28;20529;-56
2023/03/03 12:17:34;;;;;;;26.33;16.15;;;;;;;;;;5053945;28;20020;-54
2023/03/03 12:20:08;;;;;;;25.02;16.42;;;;;;;;;;5054052;28;20025;-57
2023/03/03 12:22:39;;;;;;;19.63;15.05;;;;;;;;;;5054038;28;20096;-57
2023/03/03 12:25:18;;;;;;;20.55;15.18;;;;;;;;;;5053482;28;20032;-57
2023/03/03 12:28:14;;;;;;;22.52;14.25;;;;;;;;;;5053779;28;20032;-57
2023/03/03 12:30:58;;;;;;;26.23;16.52;;;;;;;;;;5048995;28;20471;-57
2023/03/03 12:33:24;;;;;;;24.20;15.30;;;;;;;;;;5054152;28;20103;-57
2023/03/03 12:35:51;;;;;;;22.98;15.73;;;;;;;;;;5053642;28;20031;-57
2023/03/03 12:38:20;;;;;;;22.02;15.40;;;;;;;;;;5053556;28;20352;-57
2023/03/03 12:40:54;;;;;;;20.70;15.73;;;;;;;;;;5053212;28;20051;-57
2023/03/03 12:43:26;;;;;;;23.02;15.85;;;;;;;;;;5054089;28;20451;-61
2023/03/03 12:46:11;;;;;;;21.75;15.35;;;;;;;;;;5053429;28;20116;-56
2023/03/03 12:48:37;;;;;;;19.40;16.13;;;;;;;;;;5053512;28;20092;-57
2023/03/03 12:51:06;;;;;;;25.55;15.80;;;;;;;;;;5053694;28;20100;-57
2023/03/03 12:53:34;;;;;;;23.15;16.02;;;;;;;;;;5053852;28;20028;-57
2023/03/03 12:56:08;;;;;;;19.67;13.75;;;;;;;;;;5053178;28;20111;-58
2023/03/03 12:58:43;;;;;;;20.33;13.93;;;;;;;;;;5053506;28;20043;-55
2023/03/03 13:01:09;;;;;;;21.38;14.18;;;;;;;;;;5053880;28;20028;-57
2023/03/03 13:03:40;;;;;;;17.77;13.85;;;;;;;;;;5053648;28;20029;-56
2023/03/03 13:06:06;;;;;;;;;;;;;;;;;;5053724;28;20037;-55
2023/03/03 13:08:50;;;;;;;17.30;13.35;;;;;;;;;;5053345;28;19912;-58
2023/03/03 13:11:22;;;;;;;19.27;12.52;;;;;;;;;;5053722;28;20025;-53
2023/03/03 13:14:07;;;;;;;21.95;15.00;;;;;;;;;;5053143;28;20489;-55
2023/03/03 13:16:59;;;;;;;19.80;14.88;;;;;;;;;;5052213;28;20029;-57
2023/03/03 13:19:39;;;;;;;21.23;13.55;;;;;;;;;;5044946;28;20534;-57
2023/03/03 13:22:08;;;;;;;18.42;15.40;;;;;;;;;;5053203;28;20381;-57
2023/03/03 13:24:52;;;;;;;17.65;14.05;;;;;;;;;;5053032;28;20352;-57
2023/03/03 13:27:19;;;;;;;22.40;14.80;;;;;;;;;;5053196;28;20076;-57
2023/03/03 13:30:00;;;;;;;21.38;15.43;;;;;;;;;;5053628;28;20025;-53
2023/03/03 13:32:42;;;;;;;16.70;12.25;;;;;;;;;;5053094;28;20029;-57
2023/03/03 13:35:08;;;;;;;19.35;15.27;;;;;;;;;;5053111;28;20086;-55
2023/03/03 13:37:34;;;;;;;21.65;14.13;;;;;;;;;;5056060;28;20025;-55
2023/03/03 13:40:03;;;;;;;17.08;13.85;;;;;;;;;;5056959;28;20025;-52
2023/03/03 13:42:29;;;;;;;23.13;14.98;;;;;;;;;;5056599;28;20074;-57
2023/03/03 13:44:56;;;;;;;22.60;15.15;;;;;;;;;;5057029;28;20029;-58
2023/03/03 13:47:30;;;;;;;19.95;13.18;;;;;;;;;;5056466;28;20056;-55
2023/03/03 13:50:14;;;;;;;23.55;15.02;;;;;;;;;;5056845;28;20033;-55
2023/03/03 13:52:50;;;;;;;20.50;15.55;;;;;;;;;;5056557;28;20447;-55
2023/03/03 13:55:16;;;;;;;22.00;14.55;;;;;;;;;;5056647;28;20485;-57
2023/03/03 13:57:45;;;;;;;21.30;15.48;;;;;;;;;;5056147;28;20075;-57
2023/03/03 14:00:10;;;;;;;21.92;16.08;;;;;;;;;;5056153;28;20029;-57
2023/03/03 14:02:46;;;;;;;23.75;15.82;;;;;;;;;;5056154;28;20120;-56
2023/03/03 14:05:16;;;;;;;22.13;13.65;;;;;;;;;;5056183;28;20110;-57
2023/03/03 14:07:49;;;;;;;32.00;16.98;;;;;;;;;;5056574;28;20029;-57
2023/03/03 14:10:17;;;;;;;21.35;15.00;;;;;;;;;;5055903;28;20054;-53
2023/03/03 14:13:02;;;;;;;18.55;14.38;;;;;;;;;;5055959;28;20530;-57
2023/03/03 14:15:30;;;;;;;20.85;15.43;;;;;;;;;;5055879;28;20079;-57
2023/03/03 14:17:56;;;;;;;22.42;14.50;;;;;;;;;;5056298;28;20025;-57
2023/03/03 14:20:34;;;;;;;17.17;14.15;;;;;;;;;;5055865;28;20029;-55
2023/03/03 14:23:20;;;;;;;20.63;14.57;;;;;;;;;;5056721;28;20029;-57
2023/03/03 14:25:57;;;;;;;17.27;13.68;;;;;;;;;;5055099;28;20040;-57
2023/03/03 14:28:25;;;;;;;21.70;15.32;;;;;;;;;;5056031;28;20124;-57
2023/03/03 14:30:54;;;;;;;23.80;14.65;;;;;;;;;;5055860;28;20031;-57
2023/03/03 14:33:21;;;;;;;18.02;13.48;;;;;;;;;;5055824;28;20024;-56